Main page
METAR-TAF:

METAR-TAF

Airports :

Stockholm Skavsta Airport

Stockholm-Skavsta, Sweden

latitude: 58-47N, longitude: 016-55E, elevation: 43 m

Current weather observation

The report was made 19 minutes ago, at 19:20 UTC
Wind 3 kt from the Southeast
Temperature 11°C
Humidity 40%
Pressure 1035 hPa
Visibility 10 km or more
no clouds below 1500 m and no cumulonimbus

METAR: ESKN 191920Z 14003KT CAVOK 11/M02 Q1035

Time: 21:39 (19:39 UTC)

Forecast

The report was made 2 hours and 9 minutes ago, at 17:30 UTC
Forecast valid from 19 at 18 UTC to 20 at 18 UTC
Wind 7 kt from the North
Visibility 10 km or more
no clouds below 1500 m and no cumulonimbus
Becoming
from 20 at 13 UTC to 20 at 15 UTC
Wind 10 kt from the South/Southeast

TAF: ESKN 191730Z 1918/2018 01007KT CAVOK BECMG 2013/2015 15010KT

Weather observations and forecasts of more than 4000 airports (METAR and TAF reports).

The available stations are represented by yellow and red dots on the map.

Hover mouse over dot to see the name of the station.

Then click to see weather observations and forecasts.

To change the map : click on the green buttons with a black cross to zoom in, on the green button with a dash to zoom out, or on the green arrows for adjacent maps.


METAR-TAF: